YTZ weather

Billy Bishop Toronto City Centre Airport
Toronto, Ontario, Canada

Public forecast

Using degrees Celsius for public forecast. Weather courtesy of forecast.io.

METAR (pilot weather report)

Retrieved 2019/03/21 03:24 UTC (2 minutes ago):

CYTZ 210324Z AUTO 26003KT 9SM -RA OVC065 04/02 A3009 RMK SLP193

TAF (pilot weather forecast)

Retrieved 2019/03/21 02:43 UTC (43 minutes ago):

TAF CYTZ 210138Z 2102/2202 13005KT P6SM -RA FEW015 OVC050 TEMPO 2102/2109 5SM -RA BR BKN015 OVC050 FM210900 11008KT 6SM -RA BR SCT008 OVC015 TEMPO 2109/2115 3SM -RA BR BKN008 OVC015 PROB30 2110/2114 2SM -RA BR BKN005 OVC015 FM211500 09008KT 6SM -RA BR BKN015 OVC030 TEMPO 2115/2117 P6SM NSW SCT015 OVC030 FM211700 09008KT P6SM BKN020 OVC050 FM212100 07008KT 6SM -SHRA BR SCT008 OVC020 PROB30 2121/2202 4SM -SHRA BR BKN008 OVC020 RMK FCST BASED ON AUTO OBS. NXT FCST BY 210800Z